Al Bateen Executive Airport

Airport
ICAO code: 
OMAD
IATA Code: 
AZI
Summary
ICAO Region: 
MID
Location: 
Abu Dhabi,
Serving: 
Abu Dhabi
Coordinates: 
Aerial View: 
24° 25' 41.999" N, 54° 27' 29.005" E
Metar
Observation
OMAD 080400Z 06004KT 030V090 6000 NSC 21/18 Q1019 NOSIG
Station
Abu Dhabi Bateen Airport
Date/Time
2021-12-08 04:00:00
Wind direction
60°
Wind speed
04 kts
Lowest cloud amount
nil significant cloud
Temperature
21°C
Dew point
18°C
Humidity
83%
QNH
1019 hPa
Weather condition
n/a

Description

Al Bateen Executive Airport is a dedicated business jet airport located 6.5 nm south east Abu Dhabi, United Arab Emirates.

Climatology

Hot Desert Climate (Köppen climate classification BWh) - Hot desert climates are typically found in the subtropics where there is unbroken sunshine for the whole year due to the stable descending air and high pressure, little or no precipitation. Maximum temperatures of 40°C to 45°C are not uncommon, particularly during the warmer months of the year. During colder periods of the year, night-time temperatures can drop to freezing or below due to the exceptional radiation loss under the clear skies. However, very rarely do temperatures drop far below freezing.

Runways

Designator Length Width Surface Rops
13/31 3200 46 ASP Yes/Yes
Airport map: 
Aerial View: 

SKYbrary Partners:

Safety knowledge contributed by: